Time;durP1;ratioP1;P1;durP2;ratioP2;P2;SDS_P1;SDS_P2;PMS_P1;PMS_P2;Temp;Humidity;BMP_temperature;BMP_pressure;BME280_temperature;BME280_humidity;BME280_pressure;Samples;Min_cycle;Max_cycle;Signal;HPM_P1;HPM_P2
2023/04/18 00:02:03;;;;;;;23.17;14.05;;;6.30;99.90;;;;;;4952952;28;20045;-66
2023/04/18 00:04:29;;;;;;;25.42;13.63;;;6.30;99.90;;;;;;4942921;29;20058;-66
2023/04/18 00:06:54;;;;;;;19.75;13.02;;;6.20;99.90;;;;;;4953628;28;20126;-67
2023/04/18 00:09:20;;;;;;;22.08;12.93;;;6.10;99.90;;;;;;4952631;28;20054;-66
2023/04/18 00:11:46;;;;;;;23.65;13.30;;;6.10;99.90;;;;;;4963769;28;20118;-66
2023/04/18 00:14:12;;;;;;;21.85;13.23;;;6.10;99.90;;;;;;4953153;28;20138;-66
2023/04/18 00:16:37;;;;;;;23.40;13.77;;;6.20;99.90;;;;;;4952981;28;20039;-66
2023/04/18 00:19:04;;;;;;;21.52;13.57;;;6.20;99.90;;;;;;4942399;28;20180;-66
2023/04/18 00:21:30;;;;;;;22.65;12.93;;;6.10;99.90;;;;;;4960530;28;20092;-66
2023/04/18 00:23:56;;;;;;;22.05;13.35;;;6.20;99.90;;;;;;4953546;29;20061;-66
2023/04/18 00:26:22;;;;;;;21.77;13.48;;;6.20;99.90;;;;;;4935889;28;20482;-66
2023/04/18 00:28:47;;;;;;;20.08;13.13;;;6.20;99.90;;;;;;4943298;29;20043;-67
2023/04/18 00:31:13;;;;;;;23.23;12.90;;;6.20;99.90;;;;;;4962485;28;20042;-66
2023/04/18 00:33:38;;;;;;;21.38;13.13;;;6.20;99.90;;;;;;4953615;28;20062;-66
2023/04/18 00:36:05;;;;;;;22.00;12.93;;;6.20;99.90;;;;;;4955016;28;20045;-67
2023/04/18 00:38:30;;;;;;;22.98;13.10;;;6.20;99.90;;;;;;4957421;28;20030;-66
2023/04/18 00:40:56;;;;;;;23.75;13.57;;;6.20;99.90;;;;;;4972486;28;20121;-66
2023/04/18 00:43:23;;;;;;;23.23;13.57;;;6.20;99.90;;;;;;4962933;28;20053;-66
2023/04/18 00:45:49;;;;;;;21.30;13.02;;;6.20;99.90;;;;;;4971722;28;20046;-66
2023/04/18 00:48:15;;;;;;;21.00;13.18;;;6.20;99.90;;;;;;4964401;28;20049;-67
2023/04/18 00:50:41;;;;;;;28.75;13.65;;;6.10;99.90;;;;;;4972262;28;20045;-66
2023/04/18 00:53:09;;;;;;;23.50;13.65;;;6.10;99.90;;;;;;4959911;28;20043;-66
2023/04/18 00:55:36;;;;;;;21.48;12.73;;;6.00;99.90;;;;;;4972298;28;20125;-67
2023/04/18 00:58:02;;;;;;;27.27;13.55;;;5.90;99.90;;;;;;4955283;28;20043;-67
2023/04/18 01:00:28;;;;;;;22.00;13.65;;;5.80;99.90;;;;;;4953812;28;20038;-66
2023/04/18 01:02:54;;;;;;;24.55;13.25;;;5.70;99.90;;;;;;4952347;28;20043;-67
2023/04/18 01:05:21;;;;;;;22.65;13.25;;;5.80;99.90;;;;;;4960604;28;20593;-67
2023/04/18 01:07:47;;;;;;;23.50;13.15;;;5.80;99.90;;;;;;4952800;29;20114;-67
2023/04/18 01:10:13;;;;;;;22.92;13.25;;;5.70;99.90;;;;;;4953403;28;20093;-67
2023/04/18 01:12:39;;;;;;;22.98;14.43;;;5.70;99.90;;;;;;4952594;28;20035;-66
2023/04/18 01:15:06;;;;;;;23.92;14.93;;;5.60;99.90;;;;;;4952239;28;20039;-66
2023/04/18 01:17:34;;;;;;;21.88;13.68;;;5.70;99.90;;;;;;4935591;29;20043;-66
2023/04/18 01:20:03;;;;;;;23.90;14.55;;;5.50;99.90;;;;;;4962168;28;20035;-66
2023/04/18 01:22:30;;;;;;;23.63;13.95;;;5.50;99.90;;;;;;4956903;28;20517;-66
2023/04/18 01:24:56;;;;;;;22.27;13.93;;;5.50;99.90;;;;;;4972030;28;20046;-67
2023/04/18 01:27:22;;;;;;;23.95;14.13;;;5.50;99.90;;;;;;4932738;28;20054;-67
2023/04/18 01:29:47;;;;;;;23.98;14.43;;;5.50;99.90;;;;;;4958844;28;20038;-66
2023/04/18 01:32:13;;;;;;;28.83;14.88;;;5.50;99.90;;;;;;4971747;28;20043;-67
2023/04/18 01:34:39;;;;;;;25.63;15.25;;;5.50;99.90;;;;;;4972421;28;20094;-66
2023/04/18 01:37:04;;;;;;;24.17;14.40;;;5.60;99.90;;;;;;4961368;28;20433;-66
2023/04/18 01:39:30;;;;;;;26.83;15.48;;;5.70;99.90;;;;;;4966096;28;20035;-67
2023/04/18 01:41:55;;;;;;;23.05;13.90;;;5.70;99.90;;;;;;4969014;28;20038;-67
2023/04/18 01:44:21;;;;;;;22.65;13.95;;;5.80;99.90;;;;;;4947621;28;20045;-66
2023/04/18 01:46:46;;;;;;;23.25;13.88;;;5.90;99.90;;;;;;4951261;29;20047;-66
2023/04/18 01:49:12;;;;;;;23.02;12.98;;;5.90;99.90;;;;;;4962004;28;20053;-66
2023/04/18 01:51:38;;;;;;;25.35;14.38;;;5.90;99.90;;;;;;4956296;29;20031;-67
2023/04/18 01:54:04;;;;;;;23.67;13.65;;;5.80;99.90;;;;;;4945644;28;20047;-66
2023/04/18 01:56:29;;;;;;;26.17;14.85;;;5.90;99.90;;;;;;4964042;28;20062;-66
2023/04/18 01:58:55;;;;;;;23.23;14.27;;;5.90;99.90;;;;;;4938784;29;20055;-66
2023/04/18 02:01:21;;;;;;;21.67;13.85;;;5.90;99.90;;;;;;4958605;28;20404;-66
2023/04/18 02:03:46;;;;;;;23.23;14.52;;;5.90;99.90;;;;;;4966626;28;20050;-66
2023/04/18 02:06:12;;;;;;;22.85;14.80;;;5.90;99.90;;;;;;4975362;28;20142;-66
2023/04/18 02:08:37;;;;;;;23.50;14.80;;;5.90;99.90;;;;;;4975170;28;20130;-66
2023/04/18 02:11:03;;;;;;;25.67;14.27;;;5.90;99.90;;;;;;4964539;28;20054;-67
2023/04/18 02:13:29;;;;;;;23.95;14.80;;;5.90;99.90;;;;;;4961576;28;20053;-66
2023/04/18 02:15:55;;;;;;;23.35;14.52;;;5.80;99.90;;;;;;4971358;28;20034;-67
2023/04/18 02:18:23;;;;;;;25.70;14.50;;;5.80;99.90;;;;;;4963507;28;20038;-66
2023/04/18 02:20:50;;;;;;;23.60;14.55;;;5.90;99.90;;;;;;4955518;28;20081;-66
2023/04/18 02:23:15;;;;;;;21.60;13.73;;;5.90;99.90;;;;;;4974288;28;20043;-66
2023/04/18 02:25:41;;;;;;;26.38;15.43;;;5.90;99.90;;;;;;4971557;28;20102;-66
2023/04/18 02:28:06;;;;;;;22.83;14.13;;;5.90;99.90;;;;;;4965026;28;20552;-66
2023/04/18 02:30:32;;;;;;;24.40;14.00;;;5.90;99.90;;;;;;4963188;28;20554;-66
2023/04/18 02:32:58;;;;;;;23.58;14.65;;;6.00;99.90;;;;;;4953958;28;20062;-66
2023/04/18 02:35:24;;;;;;;22.98;14.13;;;5.90;99.90;;;;;;4964684;28;20081;-67
2023/04/18 02:37:50;;;;;;;23.85;13.77;;;5.90;99.90;;;;;;4959730;28;20042;-66
2023/04/18 02:40:16;;;;;;;27.65;14.77;;;6.00;99.90;;;;;;4955740;28;20135;-67
2023/04/18 02:42:42;;;;;;;30.20;14.55;;;6.00;99.90;;;;;;4957653;28;20679;-66
2023/04/18 02:45:08;;;;;;;22.20;13.93;;;6.00;99.90;;;;;;4966152;28;20038;-66
2023/04/18 02:47:33;;;;;;;25.08;14.05;;;6.00;99.90;;;;;;4962137;28;20038;-67
2023/04/18 02:49:59;;;;;;;23.90;13.90;;;6.00;99.90;;;;;;4956959;28;20042;-66
2023/04/18 02:52:25;;;;;;;25.05;13.48;;;6.00;99.90;;;;;;4962031;28;20030;-66
2023/04/18 02:54:51;;;;;;;25.42;14.00;;;5.90;99.90;;;;;;4949428;28;20051;-67
2023/04/18 02:57:16;;;;;;;22.92;14.13;;;5.90;99.90;;;;;;4967527;28;20043;-66
2023/04/18 02:59:42;;;;;;;24.50;13.75;;;5.90;99.90;;;;;;4971676;28;20042;-66
2023/04/18 03:02:07;;;;;;;26.15;13.85;;;5.80;99.90;;;;;;4964632;28;20118;-66
2023/04/18 03:04:33;;;;;;;24.58;14.23;;;5.80;99.90;;;;;;4969769;28;20063;-66
2023/04/18 03:06:58;;;;;;;23.80;14.25;;;5.80;99.90;;;;;;4955475;28;20378;-66
2023/04/18 03:09:25;;;;;;;24.65;13.85;;;5.70;99.90;;;;;;4937599;29;20038;-66
2023/04/18 03:11:50;;;;;;;23.83;14.25;;;5.70;99.90;;;;;;4952692;28;20043;-66
2023/04/18 03:14:16;;;;;;;26.67;14.18;;;5.70;99.90;;;;;;4974998;28;20046;-66
2023/04/18 03:16:41;;;;;;;27.73;15.02;;;5.70;99.90;;;;;;4961936;28;20038;-66
2023/04/18 03:19:08;;;;;;;22.30;14.07;;;5.70;99.90;;;;;;4940889;28;20486;-66
2023/04/18 03:21:33;;;;;;;23.73;14.40;;;5.70;99.90;;;;;;4955144;28;20083;-66
2023/04/18 03:23:59;;;;;;;24.17;14.10;;;5.80;99.90;;;;;;4954409;28;20070;-66
2023/04/18 03:26:25;;;;;;;25.95;14.20;;;5.80;99.90;;;;;;4963921;28;20042;-67
2023/04/18 03:28:51;;;;;;;22.00;13.60;;;5.80;99.90;;;;;;4956826;28;20150;-67
2023/04/18 03:31:16;;;;;;;27.10;15.20;;;5.90;99.90;;;;;;4947235;29;20542;-67
2023/04/18 03:33:44;;;;;;;23.40;14.07;;;5.90;99.90;;;;;;4958920;28;20051;-67
2023/04/18 03:36:11;;;;;;;25.35;14.18;;;5.90;99.90;;;;;;4943369;28;20047;-67
2023/04/18 03:38:39;;;;;;;25.63;15.15;;;6.00;99.90;;;;;;4936999;29;20086;-67
2023/04/18 03:41:04;;;;;;;26.13;14.70;;;6.00;99.90;;;;;;4953775;28;20050;-67
2023/04/18 03:43:30;;;;;;;28.02;14.73;;;6.00;99.90;;;;;;4957332;28;20442;-66
2023/04/18 03:45:56;;;;;;;23.60;14.05;;;6.10;99.90;;;;;;4936675;29;20043;-67
2023/04/18 03:48:21;;;;;;;27.95;15.45;;;6.10;99.90;;;;;;4973641;28;20089;-66
2023/04/18 03:50:47;;;;;;;30.10;14.38;;;6.20;99.90;;;;;;4973913;28;20413;-66
2023/04/18 03:53:13;;;;;;;24.40;14.07;;;6.20;99.90;;;;;;5009443;23;20050;-68
2023/04/18 03:55:40;;;;;;;24.55;14.90;;;6.30;99.90;;;;;;4974870;28;20133;-68
2023/04/18 03:58:05;;;;;;;26.52;15.43;;;6.30;99.90;;;;;;5012242;28;20049;-69
2023/04/18 04:00:31;;;;;;;26.25;14.90;;;6.40;99.90;;;;;;4993185;28;20030;-69
2023/04/18 04:02:56;;;;;;;24.52;14.25;;;6.40;99.90;;;;;;4970254;28;20049;-68
2023/04/18 04:05:22;;;;;;;23.77;13.73;;;6.40;99.90;;;;;;4940692;28;20039;-68
2023/04/18 04:14:04;;;;;;;24.60;14.55;;;6.50;99.90;;;;;;5362171;23;20060;-67
2023/04/18 04:19:05;;;;;;;23.50;13.45;;;6.60;99.90;;;;;;2501429;23;20055;-71
2023/04/18 04:33:51;;;;;;;22.02;12.93;;;6.70;99.90;;;;;;5914104;23;20073;-71
2023/04/18 04:37:18;;;;;;;23.02;12.90;;;6.70;99.90;;;;;;4959640;28;20039;-70
2023/04/18 04:43:58;;;;;;;22.90;12.82;;;6.70;99.90;;;;;;5007287;28;20035;-71
2023/04/18 04:46:24;;;;;;;21.55;12.63;;;6.80;99.90;;;;;;4952202;28;20031;-71
2023/04/18 04:52:14;;;;;;;22.13;13.02;;;6.80;99.90;;;;;;5284714;23;20042;-68
2023/04/18 04:54:39;;;;;;;24.35;13.48;;;6.80;99.90;;;;;;4953742;28;20049;-67
2023/04/18 04:57:05;;;;;;;25.60;13.80;;;6.80;99.90;;;;;;4956800;28;20063;-69
2023/04/18 04:59:31;;;;;;;28.70;14.13;;;6.90;99.90;;;;;;4958838;28;20043;-68
2023/04/18 05:01:56;;;;;;;26.55;14.55;;;6.90;99.90;;;;;;4971419;28;20077;-69
2023/04/18 05:06:57;;;;;;;27.58;15.30;;;6.90;99.90;;;;;;5449926;23;20054;-70
2023/04/18 05:09:23;;;;;;;24.67;14.32;;;6.90;99.90;;;;;;4951735;28;20504;-70
2023/04/18 05:11:48;;;;;;;25.70;15.35;;;7.00;99.90;;;;;;4940279;29;20051;-69
2023/04/18 05:14:15;;;;;;;26.77;14.65;;;7.00;99.90;;;;;;4920452;29;20040;-69
2023/04/18 05:19:16;;;;;;;27.58;15.10;;;7.00;99.90;;;;;;5175199;23;20525;-70
2023/04/18 05:21:42;;;;;;;25.00;15.35;;;7.00;99.90;;;;;;4961555;28;20046;-70
2023/04/18 05:24:08;;;;;;;26.95;15.98;;;7.00;99.90;;;;;;4957775;28;20050;-71
2023/04/18 05:26:33;;;;;;;25.58;15.00;;;7.00;99.90;;;;;;4961473;28;20126;-70
2023/04/18 05:28:59;;;;;;;28.48;15.88;;;7.00;99.90;;;;;;5051416;23;20381;-71
2023/04/18 05:31:25;;;;;;;28.10;15.73;;;7.00;99.90;;;;;;5003300;28;20411;-72
2023/04/18 05:33:51;;;;;;;28.90;15.95;;;7.10;99.90;;;;;;4966247;28;20074;-71
2023/04/18 05:36:16;;;;;;;26.38;15.40;;;7.10;99.90;;;;;;4982394;28;20123;-71
2023/04/18 05:38:42;;;;;;;25.58;14.40;;;7.10;99.90;;;;;;4961921;28;20034;-71
2023/04/18 05:41:07;;;;;;;29.75;15.85;;;7.10;99.90;;;;;;4991097;28;20181;-71
2023/04/18 05:46:01;;;;;;;26.58;15.85;;;7.10;99.90;;;;;;4969405;28;20043;-67
2023/04/18 05:48:26;;;;;;;29.08;15.82;;;7.10;99.90;;;;;;4969710;28;20070;-67
2023/04/18 05:50:52;;;;;;;26.35;15.48;;;7.10;99.90;;;;;;4955248;28;20051;-68
2023/04/18 05:53:17;;;;;;;27.58;16.20;;;7.10;99.90;;;;;;4948250;28;20043;-67
2023/04/18 05:55:45;;;;;;;28.27;15.88;;;7.10;99.90;;;;;;4943402;28;20484;-68
2023/04/18 05:58:11;;;;;;;26.05;15.25;;;7.10;99.90;;;;;;4966856;28;20424;-67
2023/04/18 06:00:36;;;;;;;27.08;15.88;;;7.10;99.90;;;;;;4945039;29;20050;-66
2023/04/18 06:03:02;;;;;;;27.88;14.75;;;7.10;99.90;;;;;;4959836;28;20034;-67
2023/04/18 06:05:27;;;;;;;29.17;16.27;;;7.10;99.90;;;;;;4944803;28;20044;-66
2023/04/18 06:07:53;;;;;;;27.95;15.57;;;7.10;99.90;;;;;;4967720;28;20117;-66
2023/04/18 06:10:19;;;;;;;27.90;15.45;;;7.20;99.90;;;;;;4948525;28;20043;-66
2023/04/18 06:12:44;;;;;;;28.80;15.95;;;7.20;99.90;;;;;;4969177;28;20051;-66
2023/04/18 06:15:10;;;;;;;29.58;16.52;;;7.20;99.90;;;;;;4974117;28;20046;-66
2023/04/18 06:17:36;;;;;;;28.40;16.50;;;7.30;99.90;;;;;;4961940;28;20046;-67
2023/04/18 06:20:03;;;;;;;30.27;15.98;;;7.40;99.90;;;;;;4941171;28;20043;-66
2023/04/18 06:22:28;;;;;;;28.20;15.68;;;7.50;99.90;;;;;;4956762;28;20114;-66
2023/04/18 06:24:54;;;;;;;25.98;15.98;;;7.60;99.90;;;;;;4951984;28;20210;-66
2023/04/18 06:27:20;;;;;;;26.50;15.05;;;7.60;99.90;;;;;;4966064;28;20085;-67
2023/04/18 06:29:45;;;;;;;25.05;15.18;;;7.80;99.90;;;;;;4958156;28;20042;-66
2023/04/18 06:32:11;;;;;;;27.15;15.60;;;7.90;99.90;;;;;;4955753;28;20043;-66
2023/04/18 06:34:39;;;;;;;26.10;14.88;;;8.00;99.90;;;;;;4956133;29;20050;-66
2023/04/18 06:37:05;;;;;;;27.63;15.68;;;8.00;99.90;;;;;;4951599;28;21946;-67
2023/04/18 06:39:30;;;;;;;27.02;15.85;;;8.10;99.90;;;;;;4956226;28;20516;-65
2023/04/18 06:41:57;;;;;;;28.38;16.23;;;8.10;99.90;;;;;;4955120;28;20090;-66
2023/04/18 06:44:22;;;;;;;26.52;16.48;;;8.30;99.90;;;;;;4955133;28;20043;-66
2023/04/18 06:46:48;;;;;;;23.60;14.68;;;8.50;99.90;;;;;;4964486;28;20053;-66
2023/04/18 06:49:13;;;;;;;27.33;16.13;;;8.60;99.90;;;;;;4962682;28;20511;-66
2023/04/18 06:51:39;;;;;;;27.80;15.70;;;8.60;99.90;;;;;;4960177;28;20035;-66
2023/04/18 06:54:05;;;;;;;27.13;16.42;;;8.50;99.90;;;;;;4963259;28;20088;-67
2023/04/18 06:56:30;;;;;;;29.45;15.88;;;8.50;99.90;;;;;;4960360;28;20042;-66
2023/04/18 06:58:56;;;;;;;28.15;15.85;;;8.40;99.90;;;;;;4940854;29;20099;-66
2023/04/18 07:01:21;;;;;;;24.98;15.02;;;8.40;99.90;;;;;;4955660;28;20039;-65
2023/04/18 07:03:47;;;;;;;25.80;15.30;;;8.40;99.90;;;;;;4955671;29;20138;-66
2023/04/18 07:06:12;;;;;;;28.42;16.27;;;8.30;99.90;;;;;;4953301;28;20122;-66
2023/04/18 07:08:38;;;;;;;29.05;16.05;;;8.30;99.90;;;;;;4956712;28;20063;-66
2023/04/18 07:11:05;;;;;;;24.60;15.23;;;8.40;99.90;;;;;;4955121;28;20047;-65
2023/04/18 07:13:31;;;;;;;28.77;16.27;;;8.40;99.90;;;;;;4955046;28;20451;-65
2023/04/18 07:15:56;;;;;;;26.80;15.30;;;8.40;99.90;;;;;;4955114;28;20549;-65
2023/04/18 07:18:22;;;;;;;26.27;16.38;;;8.50;99.90;;;;;;4974167;28;20397;-66
2023/04/18 07:20:47;;;;;;;26.30;15.15;;;8.60;99.90;;;;;;4971778;28;20197;-66
2023/04/18 07:23:13;;;;;;;31.45;14.98;;;8.70;99.90;;;;;;4961238;28;20039;-66
2023/04/18 07:25:38;;;;;;;27.52;15.25;;;8.70;99.90;;;;;;4958532;28;20043;-66
2023/04/18 07:28:04;;;;;;;24.70;15.13;;;8.80;99.90;;;;;;4943970;28;20087;-66
2023/04/18 07:30:29;;;;;;;27.60;15.50;;;8.80;99.90;;;;;;4955889;28;20036;-66
2023/04/18 07:32:55;;;;;;;24.27;15.45;;;8.80;99.90;;;;;;4954233;28;20070;-65
2023/04/18 07:35:21;;;;;;;26.40;16.00;;;8.90;99.90;;;;;;4954789;28;20573;-66
2023/04/18 07:37:46;;;;;;;26.25;14.25;;;8.90;99.90;;;;;;4949054;28;20070;-66
2023/04/18 07:40:12;;;;;;;25.05;15.10;;;8.90;99.90;;;;;;4966900;28;20480;-66
2023/04/18 07:42:38;;;;;;;25.13;15.38;;;8.90;99.90;;;;;;4968681;28;20043;-66
2023/04/18 07:45:04;;;;;;;26.02;15.88;;;9.00;99.90;;;;;;4972146;28;20094;-66
2023/04/18 07:47:30;;;;;;;25.42;14.57;;;9.20;99.90;;;;;;4938370;28;20131;-66
2023/04/18 07:49:56;;;;;;;25.25;15.30;;;9.20;99.90;;;;;;4960299;28;20138;-66
2023/04/18 07:52:21;;;;;;;24.17;14.73;;;9.30;99.90;;;;;;4970439;28;20090;-66
2023/04/18 07:54:47;;;;;;;23.35;14.13;;;9.40;99.90;;;;;;4967468;28;20522;-66
2023/04/18 07:57:12;;;;;;;23.70;15.00;;;9.30;99.90;;;;;;4958937;28;20035;-66
2023/04/18 07:59:38;;;;;;;26.55;15.25;;;9.30;99.90;;;;;;4958859;28;20027;-66
2023/04/18 08:02:04;;;;;;;24.08;14.32;;;9.40;99.90;;;;;;4964712;28;20050;-66
2023/04/18 08:04:29;;;;;;;21.95;14.35;;;9.60;99.90;;;;;;4958979;28;20046;-66
2023/04/18 08:06:55;;;;;;;25.40;14.10;;;9.80;99.90;;;;;;4966456;28;20087;-66
2023/04/18 08:09:21;;;;;;;23.00;14.52;;;9.70;99.90;;;;;;4965685;28;20045;-66
2023/04/18 08:11:46;;;;;;;23.00;14.70;;;9.80;99.90;;;;;;4960748;28;20047;-66
2023/04/18 08:14:12;;;;;;;24.70;15.23;;;9.80;99.90;;;;;;4945167;28;20039;-66
2023/04/18 08:16:38;;;;;;;24.75;15.45;;;9.90;99.90;;;;;;4963788;28;20040;-66
2023/04/18 08:19:04;;;;;;;27.70;15.18;;;9.80;99.90;;;;;;4959025;28;20041;-66
2023/04/18 08:21:31;;;;;;;24.98;16.35;;;9.80;99.90;;;;;;4952620;28;20050;-66
2023/04/18 08:23:56;;;;;;;26.38;15.23;;;9.80;99.90;;;;;;4950088;28;20031;-66
2023/04/18 08:26:22;;;;;;;23.98;15.07;;;9.90;99.90;;;;;;4946060;28;20073;-66
2023/04/18 08:28:47;;;;;;;24.13;14.73;;;10.00;99.90;;;;;;4964083;28;20073;-66
2023/04/18 08:31:14;;;;;;;26.08;15.63;;;10.10;99.90;;;;;;4945973;28;20046;-66
2023/04/18 08:33:40;;;;;;;26.77;16.35;;;10.10;99.90;;;;;;4946890;28;20046;-66
2023/04/18 08:36:06;;;;;;;25.05;15.85;;;10.20;99.90;;;;;;4947498;28;20062;-66
2023/04/18 08:38:31;;;;;;;22.73;15.13;;;10.20;99.90;;;;;;4948679;28;20132;-66
2023/04/18 08:40:57;;;;;;;26.77;15.48;;;10.30;99.90;;;;;;4955522;28;20066;-66
2023/04/18 08:43:24;;;;;;;27.15;15.20;;;10.40;99.90;;;;;;4949606;28;20035;-66
2023/04/18 08:45:51;;;;;;;22.63;14.45;;;10.40;99.90;;;;;;4965171;28;20043;-66
2023/04/18 08:48:17;;;;;;;24.30;15.68;;;10.70;99.90;;;;;;4943013;28;20047;-66
2023/04/18 08:50:43;;;;;;;24.70;16.15;;;11.00;99.90;;;;;;4952613;28;20031;-66
2023/04/18 08:53:09;;;;;;;24.00;15.38;;;11.10;99.90;;;;;;4950787;28;20123;-66
2023/04/18 08:55:36;;;;;;;23.23;14.85;;;11.20;99.90;;;;;;4957749;28;20553;-66
2023/04/18 08:58:05;;;;;;;28.33;15.35;;;11.10;99.90;;;;;;4961610;28;20035;-66
2023/04/18 09:00:31;;;;;;;24.88;14.25;;;11.10;99.90;;;;;;4972451;28;20050;-66
2023/04/18 09:02:57;;;;;;;23.30;14.38;;;11.10;99.90;;;;;;4957948;28;20633;-66
2023/04/18 09:05:25;;;;;;;24.73;14.88;;;11.00;99.90;;;;;;4935560;29;20051;-66
2023/04/18 09:07:53;;;;;;;21.92;14.52;;;10.90;99.90;;;;;;4952929;28;20058;-66
2023/04/18 09:10:29;;;;;;;26.00;15.23;;;11.10;99.90;;;;;;4955097;28;20142;-66
2023/04/18 09:12:56;;;;;;;30.63;16.75;;;11.20;99.90;;;;;;4958705;28;20083;-66
2023/04/18 09:15:25;;;;;;;25.20;14.90;;;10.90;99.90;;;;;;4935945;29;20533;-66
2023/04/18 09:17:53;;;;;;;24.17;15.43;;;10.80;99.90;;;;;;4953088;29;20110;-66
2023/04/18 09:20:39;;;;;;;25.75;15.88;;;10.80;99.90;;;;;;4957661;28;20235;-66
2023/04/18 09:23:23;;;;;;;27.83;15.50;;;10.80;99.90;;;;;;4961571;28;20050;-66
2023/04/18 09:25:51;;;;;;;26.48;16.02;;;10.90;99.90;;;;;;4953339;28;20071;-66
2023/04/18 09:28:25;;;;;;;25.80;17.20;;;11.00;99.90;;;;;;4950132;28;20043;-66
2023/04/18 09:30:52;;;;;;;26.75;16.98;;;11.00;99.90;;;;;;4952487;28;20401;-66
2023/04/18 09:33:27;;;;;;;29.95;16.08;;;10.90;99.90;;;;;;4953039;28;20511;-66
2023/04/18 09:35:53;;;;;;;28.85;17.05;;;10.90;99.90;;;;;;4950668;28;20050;-66
2023/04/18 09:38:19;;;;;;;25.73;16.50;;;11.10;99.90;;;;;;4952235;28;20039;-66
2023/04/18 09:40:44;;;;;;;28.67;16.58;;;11.40;99.90;;;;;;4934487;29;20046;-66
2023/04/18 09:43:18;;;;;;;26.25;16.25;;;11.70;99.90;;;;;;4959058;28;20617;-66
2023/04/18 09:45:47;;;;;;;22.90;15.13;;;11.70;99.90;;;;;;4938779;28;20506;-67
2023/04/18 09:48:13;;;;;;;26.92;16.38;;;11.50;99.90;;;;;;4960866;28;20058;-67
2023/04/18 09:50:40;;;;;;;25.52;15.95;;;11.40;99.90;;;;;;4970699;28;20038;-67
2023/04/18 09:53:07;;;;;;;27.83;16.58;;;11.60;99.90;;;;;;4959730;28;20502;-67
2023/04/18 09:55:33;;;;;;;24.67;15.93;;;12.00;99.90;;;;;;4950544;28;20474;-67
2023/04/18 09:58:02;;;;;;;27.02;15.80;;;12.10;99.90;;;;;;4952633;28;20058;-67
2023/04/18 10:00:29;;;;;;;25.60;15.63;;;12.40;99.90;;;;;;4950410;28;20393;-67
2023/04/18 10:03:08;;;;;;;24.50;16.23;;;12.50;99.90;;;;;;4953172;28;20267;-67
2023/04/18 10:05:37;;;;;;;24.63;15.82;;;12.90;99.90;;;;;;4956576;28;20039;-67
2023/04/18 10:08:03;;;;;;;24.67;15.35;;;12.90;99.90;;;;;;4952798;28;20122;-67
2023/04/18 10:10:29;;;;;;;21.83;14.05;;;12.90;99.90;;;;;;4953822;28;20170;-68
2023/04/18 10:12:56;;;;;;;22.70;15.23;;;12.60;99.90;;;;;;4954165;28;20051;-67
2023/04/18 10:15:25;;;;;;;25.55;15.00;;;12.40;99.90;;;;;;4952710;28;20039;-67
2023/04/18 10:17:55;;;;;;;30.35;16.15;;;12.30;99.90;;;;;;4960004;28;20089;-68
2023/04/18 10:20:26;;;;;;;24.42;15.23;;;12.40;99.90;;;;;;4954070;28;20046;-68
2023/04/18 10:22:52;;;;;;;23.33;14.75;;;12.60;99.90;;;;;;4950010;28;20109;-67
2023/04/18 10:25:36;;;;;;;23.48;14.85;;;12.30;99.90;;;;;;4953979;28;20047;-68
2023/04/18 10:28:06;;;;;;;22.60;14.20;;;12.50;99.90;;;;;;4949909;28;20043;-66
2023/04/18 10:30:40;;;;;;;23.42;13.95;;;12.60;99.90;;;;;;4952871;28;20046;-68
2023/04/18 10:33:33;;;;;;;19.40;12.35;;;12.60;99.90;;;;;;4963935;28;20041;-68
2023/04/18 10:36:07;;;;;;;20.17;12.98;;;12.60;99.90;;;;;;4955717;28;20494;-67
2023/04/18 10:38:37;;;;;;;20.40;13.48;;;12.70;99.90;;;;;;4955604;28;20034;-67
2023/04/18 10:41:22;;;;;;;20.90;13.10;;;12.70;99.90;;;;;;4964329;28;20508;-67
2023/04/18 10:44:06;;;;;;;20.73;13.48;;;13.00;99.90;;;;;;4935169;28;20043;-68
2023/04/18 10:46:55;;;;;;;19.80;12.98;;;13.20;99.90;;;;;;4947243;28;20043;-67
2023/04/18 10:49:24;;;;;;;22.17;13.50;;;13.20;99.90;;;;;;4943107;28;20126;-67
2023/04/18 10:51:57;;;;;;;23.27;15.20;;;13.20;99.90;;;;;;4961755;28;20051;-67
2023/04/18 10:54:36;;;;;;;24.40;14.10;;;13.20;99.90;;;;;;4954418;28;20070;-67
2023/04/18 10:57:03;;;;;;;20.83;14.02;;;12.90;99.90;;;;;;4955147;28;20044;-67
2023/04/18 10:59:33;;;;;;;21.15;13.95;;;12.70;99.90;;;;;;4951636;28;20026;-67
2023/04/18 11:02:13;;;;;;;21.35;14.32;;;12.60;99.90;;;;;;4953524;28;20517;-67
2023/04/18 11:04:39;;;;;;;21.65;15.13;;;12.40;99.90;;;;;;4951820;28;20161;-67
2023/04/18 11:07:05;;;;;;;23.70;15.52;;;12.30;99.90;;;;;;4951774;28;20442;-67
2023/04/18 11:09:30;;;;;;;27.92;15.63;;;12.60;99.90;;;;;;4937829;28;20043;-68
2023/04/18 11:12:04;;;;;;;23.52;16.45;;;12.50;99.90;;;;;;4956208;28;20478;-67
2023/04/18 11:14:47;;;;;;;24.30;16.42;;;12.70;99.90;;;;;;4952979;28;20548;-68
2023/04/18 11:17:23;;;;;;;23.52;17.00;;;12.60;99.90;;;;;;4955655;28;20074;-67
2023/04/18 11:19:57;;;;;;;24.15;17.05;;;12.80;99.90;;;;;;4957894;28;20126;-67
2023/04/18 11:22:23;;;;;;;24.17;16.80;;;12.90;99.90;;;;;;4963662;28;20035;-67
2023/04/18 11:24:49;;;;;;;27.83;16.23;;;13.10;99.90;;;;;;4952707;28;20569;-67
2023/04/18 11:27:14;;;;;;;24.33;16.75;;;13.20;99.90;;;;;;4944546;28;20133;-67
2023/04/18 11:29:40;;;;;;;25.00;16.35;;;13.40;99.90;;;;;;4935288;28;20102;-67
2023/04/18 11:32:07;;;;;;;23.02;14.90;;;13.90;99.90;;;;;;4961100;28;20075;-66
2023/04/18 11:34:34;;;;;;;23.67;16.73;;;14.10;99.90;;;;;;4952889;28;20031;-67
2023/04/18 11:37:00;;;;;;;22.45;16.30;;;14.00;99.90;;;;;;4961434;28;20122;-67
2023/04/18 11:39:26;;;;;;;26.00;16.63;;;14.00;99.90;;;;;;4954097;29;20114;-67
2023/04/18 11:41:51;;;;;;;25.50;15.95;;;14.40;99.90;;;;;;4952284;28;20098;-67
2023/04/18 11:44:24;;;;;;;22.52;15.88;;;14.60;99.90;;;;;;5002182;23;20018;-66
2023/04/18 11:46:50;;;;;;;21.63;15.27;;;14.90;99.90;;;;;;4947006;28;20432;-66
2023/04/18 11:49:26;;;;;;;22.40;16.17;;;14.90;99.90;;;;;;4945946;28;20043;-67
2023/04/18 11:51:52;;;;;;;23.80;16.00;;;15.20;99.90;;;;;;4961176;28;20086;-66
2023/04/18 11:54:41;;;;;;;18.83;14.70;;;15.40;99.90;;;;;;4948166;28;20111;-66
2023/04/18 11:57:19;;;;;;;20.33;14.70;;;15.30;99.90;;;;;;4953969;28;20050;-66
2023/04/18 11:59:53;;;;;;;23.42;14.70;;;15.00;99.10;;;;;;4954559;29;20039;-66
2023/04/18 12:02:20;;;;;;;20.65;14.85;;;14.90;99.90;;;;;;4954237;28;20481;-66
2023/04/18 12:04:53;;;;;;;21.42;14.77;;;15.20;99.90;;;;;;4953089;28;20163;-67
2023/04/18 12:07:32;;;;;;;21.77;14.68;;;15.50;99.90;;;;;;4917349;28;20557;-66
2023/04/18 12:09:58;;;;;;;21.67;14.20;;;15.70;99.90;;;;;;4921168;28;20043;-67
2023/04/18 12:12:24;;;;;;;21.30;13.35;;;15.60;99.90;;;;;;4937376;29;20039;-66
2023/04/18 12:15:00;;;;;;;20.42;14.05;;;15.60;98.70;;;;;;4930013;28;20154;-66
2023/04/18 12:17:27;;;;;;;22.70;14.90;;;15.40;98.40;;;;;;4935713;28;20058;-66
2023/04/18 12:19:54;;;;;;;19.75;13.80;;;15.40;99.90;;;;;;4918406;28;20060;-67
2023/04/18 12:22:35;;;;;;;21.38;14.30;;;15.60;99.90;;;;;;4915803;28;21192;-66
2023/04/18 12:25:27;;;;;;;18.42;13.50;;;15.80;99.30;;;;;;4952874;28;20130;-66
2023/04/18 12:28:02;;;;;;;21.55;14.45;;;15.80;98.30;;;;;;4930885;29;20055;-66
2023/04/18 12:30:33;;;;;;;21.30;14.50;;;15.80;99.70;;;;;;4954090;29;20054;-66
2023/04/18 12:33:00;;;;;;;24.60;14.68;;;15.80;99.90;;;;;;4950735;28;20110;-66
2023/04/18 12:35:27;;;;;;;19.95;14.10;;;16.00;99.90;;;;;;4958091;28;20035;-66
2023/04/18 12:37:54;;;;;;;17.70;12.77;;;16.00;97.90;;;;;;4954037;28;20086;-67
2023/04/18 12:40:21;;;;;;;19.23;13.13;;;15.80;98.20;;;;;;4961166;28;20050;-66
2023/04/18 12:42:48;;;;;;;21.08;13.35;;;15.80;98.60;;;;;;4953787;29;20392;-66
2023/04/18 12:45:14;;;;;;;18.73;14.10;;;15.80;98.90;;;;;;4953947;28;20104;-66
2023/04/18 12:47:43;;;;;;;18.25;13.55;;;15.80;98.60;;;;;;4964571;28;20069;-66
2023/04/18 12:50:11;;;;;;;22.25;14.25;;;15.50;97.60;;;;;;4948672;28;20558;-66
2023/04/18 12:52:38;;;;;;;26.83;14.05;;;15.70;98.10;;;;;;4953720;28;20035;-66
2023/04/18 12:55:05;;;;;;;20.92;13.80;;;15.80;98.40;;;;;;4952220;28;20528;-67
2023/04/18 12:57:31;;;;;;;21.95;13.93;;;15.90;99.30;;;;;;4953419;28;20043;-66
2023/04/18 12:59:56;;;;;;;19.02;14.27;;;15.90;97.60;;;;;;4953589;29;20039;-66
2023/04/18 13:02:22;;;;;;;29.70;14.35;;;15.80;97.80;;;;;;4952329;28;20174;-66
2023/04/18 13:04:50;;;;;;;21.20;13.65;;;15.80;98.30;;;;;;4935747;29;20134;-66
2023/04/18 13:07:16;;;;;;;17.27;12.70;;;15.80;97.40;;;;;;4940050;28;20043;-67
2023/04/18 13:09:41;;;;;;;22.70;13.95;;;15.70;96.60;;;;;;4947436;28;20035;-66
2023/04/18 13:12:07;;;;;;;18.23;14.23;;;15.80;98.10;;;;;;4960280;28;20043;-66